Time;durP1;ratioP1;P1;durP2;ratioP2;P2;SDS_P1;SDS_P2;PMS_P1;PMS_P2;Temp;Humidity;BMP_temperature;BMP_pressure;BME280_temperature;BME280_humidity;BME280_pressure;Samples;Min_cycle;Max_cycle;Signal;HPM_P1;HPM_P2
2019/06/09 00:00:50;;;;;;;1999.9;999.9;;;;;;;12.27;76.50586;945.4567;;;;
2019/06/09 00:03:16;;;;;;;1999.9;999.9;;;;;;;12.22;76.81934;945.4695;;;;
2019/06/09 00:05:43;;;;;;;1999.9;999.9;;;;;;;12.24;76.87988;945.3148;;;;
2019/06/09 00:08:12;;;;;;;1999.9;999.9;;;;;;;12.36;76.31543;945.3677;;;;
2019/06/09 00:10:41;;;;;;;1999.9;999.9;;;;;;;12.23;76.75195;945.3834;;;;
2019/06/09 00:13:10;;;;;;;1999.9;999.9;;;;;;;12.14;77.11426;945.3914;;;;
2019/06/09 00:15:43;;;;;;;1999.9;999.9;;;;;;;12.4;75.86328;945.3642;;;;
2019/06/09 00:18:12;;;;;;;1999.9;999.9;;;;;;;12.48;75.59082;945.4295;;;;
2019/06/09 00:20:44;;;;;;;1999.9;999.9;;;;;;;12.42;75.39844;945.3839;;;;
2019/06/09 00:23:13;;;;;;;1999.9;999.9;;;;;;;12.62;74.67578;945.4717;;;;
2019/06/09 00:25:35;;;;;;;1999.9;999.9;;;;;;;12.51;75.17285;945.4562;;;;
2019/06/09 00:28:09;;;;;;;1999.9;999.9;;;;;;;12.41;75.58008;945.4866;;;;
2019/06/09 00:30:41;;;;;;;1999.9;999.9;;;;;;;12.65;74.4502;945.4481;;;;
2019/06/09 00:33:05;;;;;;;1999.9;999.9;;;;;;;12.41;75.44043;945.4186;;;;
2019/06/09 00:35:29;;;;;;;1999.9;999.9;;;;;;;12.55;75.01855;945.3976;;;;
2019/06/09 00:37:56;;;;;;;1999.9;999.9;;;;;;;12.32;75.87402;945.3752;;;;
2019/06/09 00:40:31;;;;;;;1999.9;999.9;;;;;;;12.15;76.53125;945.433;;;;
2019/06/09 00:42:59;;;;;;;1999.9;999.9;;;;;;;12.24;75.92871;945.4378;;;;
2019/06/09 00:45:34;;;;;;;1999.9;999.9;;;;;;;12.01;76.94336;945.4578;;;;
2019/06/09 00:48:08;;;;;;;1999.9;999.9;;;;;;;12.01;76.87402;945.4323;;;;
2019/06/09 00:50:40;;;;;;;1999.9;999.9;;;;;;;11.77;77.81543;945.3209;;;;
2019/06/09 00:53:12;;;;;;;1999.9;999.9;;;;;;;11.8;77.94629;945.4086;;;;
2019/06/09 00:55:46;;;;;;;1999.9;999.9;;;;;;;12.03;77.08398;945.3586;;;;
2019/06/09 00:58:14;;;;;;;1999.9;999.9;;;;;;;12.12;76.35352;945.3464;;;;
2019/06/09 01:00:41;;;;;;;1999.9;999.9;;;;;;;11.59;78.69922;945.3153;;;;
2019/06/09 01:03:15;;;;;;;1999.9;999.9;;;;;;;11.62;78.85449;945.2874;;;;
2019/06/09 01:05:56;;;;;;;1999.9;999.9;;;;;;;11.48;79.30664;945.3214;;;;
2019/06/09 01:09:00;;;;;;;1999.9;999.9;;;;;;;11.33;79.88672;945.325;;;;
2019/06/09 01:11:31;;;;;;;1999.9;999.9;;;;;;;11.33;79.99902;945.2745;;;;
2019/06/09 01:13:52;;;;;;;1999.9;999.9;;;;;;;11.52;79.32617;945.2878;;;;
2019/06/09 01:16:17;;;;;;;1999.9;999.9;;;;;;;11.51;78.95898;945.365;;;;
2019/06/09 01:18:57;;;;;;;1999.9;999.9;;;;;;;11.29;80.02832;945.3329;;;;
2019/06/09 01:21:22;;;;;;;1999.9;999.9;;;;;;;11.24;80.37305;945.2993;;;;
2019/06/09 01:24:02;;;;;;;1999.9;999.9;;;;;;;11.19;80.53613;945.2559;;;;
2019/06/09 01:26:36;;;;;;;1999.9;999.9;;;;;;;11.19;80.73047;945.1841;;;;
2019/06/09 01:29:10;;;;;;;1999.9;999.9;;;;;;;11.19;80.52539;945.1627;;;;
2019/06/09 01:31:36;;;;;;;1999.9;999.9;;;;;;;11.31;79.95215;945.1826;;;;
2019/06/09 01:34:10;;;;;;;1817.8;999.9;;;;;;;11.24;80.20313;945.1926;;;;
2019/06/09 01:36:38;;;;;;;1659.2;999.9;;;;;;;11.16;80.50684;945.1867;;;;
2019/06/09 01:39:09;;;;;;;1532.2;999.9;;;;;;;11.46;79.25781;945.191;;;;
2019/06/09 01:41:31;;;;;;;1685.3;999.9;;;;;;;11.13;80.49023;945.1934;;;;
2019/06/09 01:44:08;;;;;;;1333.1;999.9;;;;;;;11.21;80.32129;945.1358;;;;
2019/06/09 01:46:33;;;;;;;1221.6;987;;;;;;;11.39;79.33789;945.0818;;;;
2019/06/09 01:49:04;;;;;;;1316.2;999.9;;;;;;;11.38;79.69043;945.0953;;;;
2019/06/09 01:51:34;;;;;;;1689.2;999.9;;;;;;;11.39;79.35059;945.0517;;;;
2019/06/09 01:54:11;;;;;;;1070.7;928.4;;;;;;;11.44;78.99121;945.0439;;;;
2019/06/09 01:56:34;;;;;;;728.4;655.7;;;;;;;11.14;80.22949;945.027;;;;
2019/06/09 01:59:03;;;;;;;227.4;209.7;;;;;;;11.17;80.23438;944.9646;;;;
2019/06/09 02:01:30;;;;;;;136.2;125.8;;;;;;;11.21;79.84375;944.9952;;;;
2019/06/09 02:03:58;;;;;;;28.4;26.1;;;;;;;10.94;81.19824;945.0908;;;;
2019/06/09 02:06:25;;;;;;;54.7;50.8;;;;;;;10.99;80.93359;944.95;;;;
2019/06/09 02:08:56;;;;;;;71;66;;;;;;;11.14;80.18457;944.9968;;;;
2019/06/09 02:11:32;;;;;;;33.9;31.6;;;;;;;11.14;80.25391;944.9928;;;;
2019/06/09 02:14:22;;;;;;;38.5;35.8;;;;;;;11.08;80.35645;945.002;;;;
2019/06/09 02:16:55;;;;;;;8.6;7.8;;;;;;;11.04;80.50781;945.0524;;;;
2019/06/09 02:19:25;;;;;;;5.7;3.8;;;;;;;11.3;79.41309;945.0221;;;;
2019/06/09 02:21:52;;;;;;;6;4.4;;;;;;;11.31;79.3916;944.9442;;;;
2019/06/09 02:24:25;;;;;;;6.3;3.6;;;;;;;11.61;78.01563;944.9861;;;;
2019/06/09 02:26:59;;;;;;;4.8;3.6;;;;;;;11.15;79.54492;944.9243;;;;
2019/06/09 02:29:27;;;;;;;5.8;3.6;;;;;;;11.09;80.20898;944.8953;;;;
2019/06/09 02:32:03;;;;;;;5.9;3.8;;;;;;;11.28;79.16895;944.8744;;;;
2019/06/09 02:34:31;;;;;;;5.1;3.7;;;;;;;11.2;79.58887;944.8472;;;;
2019/06/09 02:37:03;;;;;;;5.3;3.5;;;;;;;11.11;79.8252;944.7866;;;;
2019/06/09 02:39:32;;;;;;;4.9;3.4;;;;;;;11.41;78.75781;944.7952;;;;
2019/06/09 02:42:05;;;;;;;5.6;3.6;;;;;;;11.3;79.18359;944.7535;;;;
2019/06/09 02:44:38;;;;;;;6.5;3.6;;;;;;;11.46;78.26367;944.6974;;;;
2019/06/09 02:47:33;;;;;;;7.3;3.9;;;;;;;11.56;77.5957;944.6967;;;;
2019/06/09 02:50:05;;;;;;;4.7;3.5;;;;;;;11.07;79.70117;944.7054;;;;
2019/06/09 02:52:35;;;;;;;4.4;3.3;;;;;;;11.15;79.4873;944.69;;;;
2019/06/09 02:54:57;;;;;;;5.1;3.6;;;;;;;10.85;80.86133;944.6859;;;;
2019/06/09 02:57:23;;;;;;;6.1;3.8;;;;;;;10.75;81.40234;944.7029;;;;
2019/06/09 02:59:56;;;;;;;6.4;3.7;;;;;;;10.75;81.35645;944.7197;;;;
2019/06/09 03:02:24;;;;;;;6.4;3.6;;;;;;;10.85;80.72363;944.6652;;;;
2019/06/09 03:04:48;;;;;;;4.6;3.5;;;;;;;10.63;81.83691;944.73;;;;
2019/06/09 03:07:15;;;;;;;6.7;4.1;;;;;;;10.62;82.08496;944.7139;;;;
2019/06/09 03:09:41;;;;;;;5;3.8;;;;;;;10.56;82.46289;944.6591;;;;
2019/06/09 03:12:10;;;;;;;6.2;3.8;;;;;;;10.67;82.10645;944.5947;;;;
2019/06/09 03:14:39;;;;;;;5.9;3.8;;;;;;;10.7;82.09082;944.6262;;;;
2019/06/09 03:17:13;;;;;;;5.5;3.7;;;;;;;10.64;82.39844;944.6738;;;;
2019/06/09 03:19:52;;;;;;;5.6;3.6;;;;;;;10.84;81.625;944.6443;;;;
2019/06/09 03:22:12;;;;;;;5.5;3.8;;;;;;;11.05;80.26953;944.6309;;;;
2019/06/09 03:24:50;;;;;;;6.7;3.9;;;;;;;11.23;79.77539;944.6199;;;;
2019/06/09 03:27:28;;;;;;;5.1;4;;;;;;;11.34;78.89453;944.7032;;;;
2019/06/09 03:29:58;;;;;;;4.8;3.5;;;;;;;11.04;79.83301;944.6738;;;;
2019/06/09 03:32:23;;;;;;;5.3;3.7;;;;;;;11.1;79.53516;944.6859;;;;
2019/06/09 03:34:53;;;;;;;6.9;3.7;;;;;;;10.99;79.84766;944.6949;;;;
2019/06/09 03:37:20;;;;;;;6.3;3.7;;;;;;;10.65;81.09961;944.6939;;;;
2019/06/09 03:40:12;;;;;;;5.7;3.6;;;;;;;10.56;81.65234;944.6678;;;;
2019/06/09 03:42:38;;;;;;;7.4;3.6;;;;;;;10.55;81.93555;944.7108;;;;
2019/06/09 03:45:23;;;;;;;4.4;3.4;;;;;;;10.74;81.27539;944.6613;;;;
2019/06/09 03:47:49;;;;;;;6.6;3.7;;;;;;;10.81;80.88867;944.7316;;;;
2019/06/09 03:50:17;;;;;;;6.7;3.3;;;;;;;10.7;81.49707;944.7704;;;;
2019/06/09 03:52:46;;;;;;;6.9;3.5;;;;;;;10.79;81.18066;944.8056;;;;
2019/06/09 03:55:23;;;;;;;7.6;3.9;;;;;;;10.62;81.78809;944.7649;;;;
2019/06/09 03:57:46;;;;;;;6;3.7;;;;;;;10.85;81.17969;944.7416;;;;
2019/06/09 04:02:35;;;;;;;6;3.9;;;;;;;10.71;81.49805;944.7826;;;;
2019/06/09 04:05:10;;;;;;;5.6;3.4;;;;;;;10.71;81.4873;944.6169;;;;
2019/06/09 04:07:37;;;;;;;5.9;3.7;;;;;;;10.57;82.30273;944.6545;;;;
2019/06/09 04:10:04;;;;;;;6.4;4;;;;;;;10.61;82.33398;944.617;;;;
2019/06/09 04:12:34;;;;;;;6.4;3.7;;;;;;;10.73;81.73145;944.5767;;;;
2019/06/09 04:15:06;;;;;;;5.8;3.8;;;;;;;10.98;80.69043;944.5178;;;;
2019/06/09 04:17:30;;;;;;;8.3;3.9;;;;;;;11.26;79.27832;944.5024;;;;
2019/06/09 04:20:07;;;;;;;5.5;3.2;;;;;;;11.5;78.25879;944.5107;;;;
2019/06/09 04:22:33;;;;;;;5.8;3.9;;;;;;;11.54;78.32324;944.5671;;;;
2019/06/09 04:25:01;;;;;;;5.6;3.5;;;;;;;11.24;79.09277;944.5125;;;;
2019/06/09 04:27:32;;;;;;;10.2;3.9;;;;;;;10.95;80.63965;944.507;;;;
2019/06/09 04:29:58;;;;;;;5.3;3.9;;;;;;;11.06;80.52441;944.5148;;;;
2019/06/09 04:32:26;;;;;;;6.1;4;;;;;;;11.21;79.72754;944.4296;;;;
2019/06/09 04:34:51;;;;;;;7.2;3.7;;;;;;;11.06;80.66016;944.4389;;;;
2019/06/09 04:37:36;;;;;;;6.6;3.8;;;;;;;11.1;80.80371;944.3631;;;;
2019/06/09 04:39:55;;;;;;;6.8;4;;;;;;;11.15;80.6543;944.337;;;;
2019/06/09 04:42:28;;;;;;;6.9;3.8;;;;;;;11.18;80.75195;944.2704;;;;
2019/06/09 04:45:02;;;;;;;6.3;3.7;;;;;;;11.28;80.41406;944.3306;;;;
2019/06/09 04:47:28;;;;;;;7.9;3.8;;;;;;;11.53;79.35156;944.3045;;;;
2019/06/09 04:50:04;;;;;;;4.8;3.6;;;;;;;11.53;79.35156;944.3085;;;;
2019/06/09 04:52:34;;;;;;;6.1;3.6;;;;;;;11.72;78.80371;944.283;;;;
2019/06/09 04:55:13;;;;;;;5.3;3.8;;;;;;;11.87;77.81055;944.2961;;;;
2019/06/09 04:57:38;;;;;;;6.5;3.8;;;;;;;11.97;77.77246;944.3119;;;;
2019/06/09 05:00:11;;;;;;;6.7;3.9;;;;;;;11.96;78.44531;944.3348;;;;
2019/06/09 05:02:44;;;;;;;1999.9;999.9;;;;;;;12.5;76.65039;944.341;;;;
2019/06/09 05:05:08;;;;;;;1999.9;999.9;;;;;;;13.2;73.8916;944.2631;;;;
2019/06/09 05:07:34;;;;;;;1999.9;645.4;;;;;;;14.08;70.32227;944.2894;;;;
2019/06/09 05:09:59;;;;;;;1999.9;999.9;;;;;;;14.71;68.06055;944.1931;;;;
2019/06/09 05:12:30;;;;;;;1999.9;999.9;;;;;;;15.12;65.95508;944.1512;;;;
2019/06/09 05:14:55;;;;;;;1999.9;999.9;;;;;;;15.45;65.05762;944.2123;;;;
2019/06/09 05:17:23;;;;;;;1999.9;999.9;;;;;;;15.66;64.0498;944.1085;;;;
2019/06/09 05:20:00;;;;;;;1999.9;999.9;;;;;;;15.81;63.66602;944.0159;;;;
2019/06/09 05:22:28;;;;;;;1999.9;999.9;;;;;;;16.05;63.36621;944.0466;;;;
2019/06/09 05:24:58;;;;;;;1999.9;999.9;;;;;;;16.52;62.02246;943.9612;;;;
2019/06/09 05:27:37;;;;;;;1999.9;999.9;;;;;;;17.13;59.69824;943.9036;;;;
2019/06/09 05:30:01;;;;;;;1999.9;999.9;;;;;;;17.35;58.23145;943.9136;;;;
2019/06/09 05:32:25;;;;;;;839.7;721.6;;;;;;;17.6;58.1709;943.9288;;;;
2019/06/09 05:34:51;;;;;;;15.4;14.2;;;;;;;17.84;56.70605;943.8631;;;;
2019/06/09 05:37:22;;;;;;;9.5;8.6;;;;;;;17.8;56.53711;943.872;;;;
2019/06/09 05:39:56;;;;;;;12.4;11.3;;;;;;;17.85;57.49609;943.8146;;;;
2019/06/09 05:42:30;;;;;;;24.9;22.8;;;;;;;17.83;56.35547;943.7915;;;;
2019/06/09 05:45:08;;;;;;;1999.9;999.9;;;;;;;18.19;55.48438;943.8226;;;;
2019/06/09 05:47:46;;;;;;;1999.9;999.9;;;;;;;18.17;55.86523;943.8423;;;;
2019/06/09 05:50:13;;;;;;;1868.8;275.6;;;;;;;18.19;55.92676;943.8395;;;;
2019/06/09 05:52:57;;;;;;;1999.9;999.9;;;;;;;18.28;54.88965;943.8172;;;;
2019/06/09 05:55:31;;;;;;;1999.9;999.9;;;;;;;18.56;55.06543;943.8706;;;;
2019/06/09 05:57:58;;;;;;;1999.9;999.9;;;;;;;19.02;52.07324;943.9155;;;;
2019/06/09 06:00:30;;;;;;;1999.9;999.9;;;;;;;19.36;50.70313;943.8925;;;;
2019/06/09 06:03:12;;;;;;;1999.9;999.9;;;;;;;20.2;48.9668;943.7689;;;;
2019/06/09 06:05:45;;;;;;;1999.9;999.9;;;;;;;21.09;47.08887;943.7961;;;;
2019/06/09 06:08:07;;;;;;;3.3;2.3;;;;;;;22.03;46.13281;943.7623;;;;
2019/06/09 06:10:32;;;;;;;6.4;2.7;;;;;;;22.59;42.2959;943.6708;;;;
2019/06/09 06:13:20;;;;;;;4.7;2.8;;;;;;;22.44;42.91602;943.7333;;;;
2019/06/09 06:15:48;;;;;;;5.3;3;;;;;;;21.93;44.58789;943.6713;;;;
2019/06/09 06:18:32;;;;;;;11.1;10;;;;;;;22.51;44.62305;943.6682;;;;
2019/06/09 06:21:24;;;;;;;23.1;21;;;;;;;22.7;42.17676;943.6607;;;;
2019/06/09 06:23:50;;;;;;;85.4;70.9;;;;;;;22.77;47.25684;943.6414;;;;
2019/06/09 06:26:37;;;;;;;1999.9;999.9;;;;;;;23.66;41.96191;943.4478;;;;
2019/06/09 06:29:12;;;;;;;1999.9;999.9;;;;;;;24.59;37.25195;943.3304;;;;
2019/06/09 06:31:44;;;;;;;1999.9;999.9;;;;;;;24.07;37.63184;943.2353;;;;
2019/06/09 06:34:23;;;;;;;1999.9;999.9;;;;;;;23.27;39.53906;943.4018;;;;
2019/06/09 06:37:01;;;;;;;1999.9;999.9;;;;;;;23.16;39.55273;943.3472;;;;
2019/06/09 06:39:36;;;;;;;1999.9;999.9;;;;;;;22.95;40.32129;943.2062;;;;
2019/06/09 06:42:05;;;;;;;1999.9;860.1;;;;;;;22.63;41.26758;943.1635;;;;
2019/06/09 06:44:50;;;;;;;1999.9;999.9;;;;;;;22.51;42.38184;943.2056;;;;
2019/06/09 06:47:15;;;;;;;1999.9;999.9;;;;;;;23.01;41.71387;943.0029;;;;
2019/06/09 06:49:43;;;;;;;1999.9;999.9;;;;;;;23.42;40.62305;942.9695;;;;
2019/06/09 06:52:09;;;;;;;1999.9;999.9;;;;;;;23.22;41.95605;942.9917;;;;
2019/06/09 06:54:41;;;;;;;1999.9;999.9;;;;;;;23.03;41.93945;943.048;;;;
2019/06/09 06:57:32;;;;;;;1999.9;999.9;;;;;;;24.35;39.64844;943.0605;;;;
2019/06/09 07:00:08;;;;;;;1999.9;999.9;;;;;;;24.43;37.94531;942.9717;;;;
2019/06/09 07:02:42;;;;;;;1999.9;999.9;;;;;;;24.91;38.02148;942.972;;;;
2019/06/09 07:05:15;;;;;;;1999.9;999.9;;;;;;;25.34;35.23535;942.9064;;;;
2019/06/09 07:07:45;;;;;;;1999.9;999.9;;;;;;;25.36;36.57227;942.882;;;;
2019/06/09 07:10:32;;;;;;;1999.9;999.9;;;;;;;25.17;38.56348;942.8565;;;;
2019/06/09 07:13:03;;;;;;;1999.9;999.9;;;;;;;26.51;34.67676;942.7811;;;;
2019/06/09 07:15:25;;;;;;;1999.9;999.9;;;;;;;26.61;33.74902;942.6875;;;;
2019/06/09 07:17:58;;;;;;;1999.9;999.9;;;;;;;27.14;33.42188;942.6247;;;;
2019/06/09 07:20:27;;;;;;;1999.9;999.9;;;;;;;27.15;33.31543;942.5792;;;;
2019/06/09 07:23:18;;;;;;;1999.9;999.9;;;;;;;27.64;33.61328;942.5655;;;;
2019/06/09 07:25:41;;;;;;;1999.9;999.9;;;;;;;26.36;34.27441;942.5204;;;;
2019/06/09 07:28:35;;;;;;;1999.9;999.9;;;;;;;27.28;32.11621;942.5672;;;;
2019/06/09 07:31:19;;;;;;;1999.9;999.9;;;;;;;27.38;36.93848;942.5961;;;;
2019/06/09 07:33:46;;;;;;;1999.9;999.9;;;;;;;27.86;31.25391;942.6225;;;;
2019/06/09 07:36:13;;;;;;;1999.9;999.9;;;;;;;27.63;34.05176;942.5353;;;;
2019/06/09 07:38:43;;;;;;;1999.9;999.9;;;;;;;28.11;35.12109;942.4519;;;;
2019/06/09 07:41:11;;;;;;;1999.9;999.9;;;;;;;28.57;30.13867;942.483;;;;
2019/06/09 07:43:39;;;;;;;1999.9;999.9;;;;;;;28.42;30.59277;942.4981;;;;
2019/06/09 07:46:06;;;;;;;1999.9;999.9;;;;;;;27.46;33.03027;942.5623;;;;
2019/06/09 07:48:41;;;;;;;1999.9;999.9;;;;;;;27.9;33.3125;942.5236;;;;
2019/06/09 07:51:12;;;;;;;1999.9;999.9;;;;;;;27.8;31.38184;942.5259;;;;
2019/06/09 07:53:35;;;;;;;1999.9;999.9;;;;;;;27.99;35.99121;942.5011;;;;
2019/06/09 07:56:23;;;;;;;1999.9;999.9;;;;;;;28;32.80859;942.4475;;;;
2019/06/09 07:58:57;;;;;;;1999.9;999.9;;;;;;;26.22;35.27051;942.5447;;;;
2019/06/09 08:01:25;;;;;;;1999.9;999.9;;;;;;;27;37.09668;942.4808;;;;
2019/06/09 08:04:03;;;;;;;1999.9;999.9;;;;;;;27.94;36.85449;942.4442;;;;
2019/06/09 08:06:45;;;;;;;1999.9;999.9;;;;;;;29.05;32.30176;942.4244;;;;
2019/06/09 08:09:08;;;;;;;1999.9;999.9;;;;;;;29.28;34.33203;942.4922;;;;
2019/06/09 08:11:45;;;;;;;1999.9;999.9;;;;;;;29.6;34.08105;942.4531;;;;
2019/06/09 08:14:10;;;;;;;1999.9;999.9;;;;;;;29.73;31.43164;942.3885;;;;
2019/06/09 08:16:40;;;;;;;1999.9;999.9;;;;;;;30.81;32.88281;942.321;;;;
2019/06/09 08:19:05;;;;;;;1999.9;999.9;;;;;;;31.39;29.04688;942.2803;;;;
2019/06/09 08:21:31;;;;;;;1999.9;999.9;;;;;;;31.82;28.22363;942.3727;;;;
2019/06/09 08:23:59;;;;;;;1999.9;999.9;;;;;;;31.59;28.01758;942.4384;;;;
2019/06/09 08:26:30;;;;;;;1999.9;999.9;;;;;;;31.9;27.6416;942.386;;;;
2019/06/09 08:29:14;;;;;;;1999.9;999.9;;;;;;;32.38;26.08789;942.4288;;;;
2019/06/09 08:31:38;;;;;;;1999.9;999.9;;;;;;;32.98;28.25879;942.4727;;;;
2019/06/09 08:34:07;;;;;;;1999.9;999.9;;;;;;;31.86;29.02832;942.4191;;;;
2019/06/09 08:36:33;;;;;;;1999.9;999.9;;;;;;;32.54;28.72461;942.4362;;;;
2019/06/09 08:39:15;;;;;;;1999.9;999.9;;;;;;;32.71;25.92676;942.4593;;;;
2019/06/09 08:41:38;;;;;;;1999.9;999.9;;;;;;;32.52;25.87988;942.5009;;;;
2019/06/09 08:44:07;;;;;;;1999.9;999.9;;;;;;;32.4;25.24902;942.5144;;;;
2019/06/09 08:46:40;;;;;;;1999.9;999.9;;;;;;;32.55;27.94434;942.51;;;;
2019/06/09 08:49:14;;;;;;;1999.9;999.9;;;;;;;32.85;29.83594;942.4881;;;;
2019/06/09 08:51:46;;;;;;;1999.9;999.9;;;;;;;32.34;30.55859;942.5463;;;;
2019/06/09 08:54:11;;;;;;;1999.9;999.9;;;;;;;30.27;32.61621;942.5475;;;;
2019/06/09 08:56:45;;;;;;;1999.9;999.9;;;;;;;30.37;34.33008;942.5189;;;;
2019/06/09 08:59:21;;;;;;;1999.9;999.9;;;;;;;30.99;33.55371;942.4835;;;;
2019/06/09 09:01:49;;;;;;;1999.9;999.9;;;;;;;31.29;32.51074;942.412;;;;
2019/06/09 09:04:31;;;;;;;1999.9;999.9;;;;;;;31.29;31.56543;942.5213;;;;
2019/06/09 09:07:08;;;;;;;1999.9;999.9;;;;;;;30.91;31.2998;942.5017;;;;
2019/06/09 09:09:30;;;;;;;5.9;2.7;;;;;;;30.32;34.33887;942.5845;;;;
2019/06/09 09:12:01;;;;;;;6.5;2.5;;;;;;;29.11;39.86719;942.564;;;;
2019/06/09 09:14:30;;;;;;;6;2.5;;;;;;;29.9;35.44043;942.5606;;;;
2019/06/09 09:16:53;;;;;;;5;2.5;;;;;;;30.15;34.40918;942.5467;;;;
2019/06/09 09:19:23;;;;;;;9.3;2.7;;;;;;;29.87;35.4375;942.4475;;;;
2019/06/09 09:21:51;;;;;;;6.4;2.8;;;;;;;29.22;38.51953;942.5544;;;;
2019/06/09 09:24:18;;;;;;;6.9;2.6;;;;;;;29.32;37.97949;942.4506;;;;
2019/06/09 09:26:50;;;;;;;3.9;2.7;;;;;;;29.63;36.27832;942.4169;;;;
2019/06/09 09:29:23;;;;;;;4.6;2.6;;;;;;;29.5;37.32813;942.4512;;;;
2019/06/09 09:31:56;;;;;;;5.6;2.8;;;;;;;29.23;38.02051;942.2937;;;;
2019/06/09 09:34:28;;;;;;;5.2;2.5;;;;;;;28.8;37.88867;942.3989;;;;
2019/06/09 09:37:00;;;;;;;5.7;2.7;;;;;;;28.64;36.81641;942.3594;;;;
2019/06/09 09:39:25;;;;;;;5.1;2.8;;;;;;;27.95;41.03613;942.2936;;;;
2019/06/09 09:41:52;;;;;;;4.9;2.9;;;;;;;27.89;37.27832;942.2117;;;;
2019/06/09 09:44:20;;;;;;;7.1;3;;;;;;;27.91;38.22949;942.2263;;;;
2019/06/09 09:46:48;;;;;;;12.3;3.1;;;;;;;27.93;38.30273;942.2568;;;;
2019/06/09 09:49:14;;;;;;;5.5;2.7;;;;;;;27.8;38.80273;942.264;;;;
2019/06/09 09:51:45;;;;;;;5.5;2.9;;;;;;;27.77;38.91797;942.3041;;;;
2019/06/09 09:54:11;;;;;;;5.6;3.1;;;;;;;27.89;37.75293;942.1149;;;;
2019/06/09 09:56:37;;;;;;;4;3;;;;;;;27.93;37.95898;942.0695;;;;
2019/06/09 09:59:09;;;;;;;4.6;2.9;;;;;;;27.88;38.13184;942.0989;;;;
2019/06/09 10:01:46;;;;;;;5.1;2.5;;;;;;;27.93;37.7207;941.9686;;;;
2019/06/09 10:04:15;;;;;;;4.7;2.8;;;;;;;27.59;41.88184;942.0353;;;;
2019/06/09 10:06:54;;;;;;;5.5;3;;;;;;;26.85;39.75098;941.9838;;;;
2019/06/09 10:09:24;;;;;;;5.3;3.1;;;;;;;26.81;40.63574;941.9383;;;;
2019/06/09 10:11:50;;;;;;;5.2;3;;;;;;;26.87;39.9541;941.9553;;;;
2019/06/09 10:14:19;;;;;;;6.6;2.9;;;;;;;26.08;41.85938;941.8914;;;;
2019/06/09 10:16:50;;;;;;;5.9;2.8;;;;;;;26.32;40.94727;941.7852;;;;
2019/06/09 10:19:24;;;;;;;5.1;2.9;;;;;;;26.44;41.51367;941.7251;;;;
2019/06/09 10:21:57;;;;;;;5.9;3;;;;;;;26.49;41.37695;941.7117;;;;
2019/06/09 10:24:27;;;;;;;174.2;158.5;;;;;;;26.49;43.01074;941.6032;;;;
2019/06/09 10:26:53;;;;;;;5.7;2.9;;;;;;;26.28;42.69434;941.548;;;;
2019/06/09 10:29:18;;;;;;;1999.9;999.9;;;;;;;26.23;44.38086;941.6163;;;;
2019/06/09 10:31:53;;;;;;;1999.9;999.9;;;;;;;25.92;44.30371;941.6764;;;;
2019/06/09 10:34:27;;;;;;;1999.9;999.9;;;;;;;25.85;44;941.6397;;;;
2019/06/09 10:36:57;;;;;;;1999.9;999.9;;;;;;;25.92;43.18066;941.5328;;;;
2019/06/09 10:39:28;;;;;;;1999.9;999.9;;;;;;;25.68;42.82617;941.5303;;;;
2019/06/09 10:41:55;;;;;;;1999.9;999.9;;;;;;;;;;;;;
2019/06/09 10:44:23;;;;;;;1999.9;999.9;;;;;;;;;;;;;
2019/06/09 10:46:46;;;;;;;1999.9;999.9;;;;;;;;;;;;;
2019/06/09 10:49:12;;;;;;;1999.9;999.9;;;;;;;;;;;;;
2019/06/09 10:51:40;;;;;;;1999.9;999.9;;;;;;;;;;;;;
2019/06/09 10:54:04;;;;;;;1999.9;999.9;;;;;;;;;;;;;
2019/06/09 10:56:40;;;;;;;1999.9;999.9;;;;;;;;;;;;;
2019/06/09 10:59:01;;;;;;;1999.9;999.9;;;;;;;;;;;;;
2019/06/09 11:01:27;;;;;;;1999.9;999.9;;;;;;;;;;;;;
2019/06/09 11:03:57;;;;;;;1999.9;999.9;;;;;;;;;;;;;
2019/06/09 11:06:22;;;;;;;1999.9;999.9;;;;;;;;;;;;;
2019/06/09 11:08:48;;;;;;;1999.9;999.9;;;;;;;;;;;;;
2019/06/09 11:11:13;;;;;;;1999.9;999.9;;;;;;;;;;;;;
2019/06/09 11:13:39;;;;;;;1999.9;999.9;;;;;;;;;;;;;
2019/06/09 11:16:03;;;;;;;1999.9;999.9;;;;;;;;;;;;;
2019/06/09 11:18:30;;;;;;;1999.9;999.9;;;;;;;;;;;;;
2019/06/09 11:20:54;;;;;;;1999.9;999.9;;;;;;;;;;;;;
2019/06/09 11:23:32;;;;;;;1999.9;999.9;;;;;;;;;;;;;
2019/06/09 11:25:49;;;;;;;1999.9;999.9;;;;;;;;;;;;;
2019/06/09 11:28:19;;;;;;;1999.9;999.9;;;;;;;;;;;;;
2019/06/09 11:30:51;;;;;;;1999.9;999.9;;;;;;;;;;;;;
2019/06/09 11:33:22;;;;;;;1999.9;999.9;;;;;;;;;;;;;
2019/06/09 11:35:44;;;;;;;1999.9;999.9;;;;;;;;;;;;;
2019/06/09 11:38:18;;;;;;;1999.9;999.9;;;;;;;;;;;;;
2019/06/09 11:40:45;;;;;;;1999.9;999.9;;;;;;;;;;;;;
2019/06/09 11:43:12;;;;;;;1999.9;999.9;;;;;;;;;;;;;
2019/06/09 11:45:42;;;;;;;1999.9;999.9;;;;;;;;;;;;;
2019/06/09 11:48:02;;;;;;;1999.9;999.9;;;;;;;;;;;;;
2019/06/09 11:50:32;;;;;;;1999.9;999.9;;;;;;;;;;;;;
2019/06/09 11:53:00;;;;;;;1999.9;999.9;;;;;;;;;;;;;
2019/06/09 11:55:24;;;;;;;1999.9;999.9;;;;;;;;;;;;;
2019/06/09 11:57:56;;;;;;;1999.9;999.9;;;;;;;;;;;;;
2019/06/09 12:00:17;;;;;;;1999.9;999.9;;;;;;;;;;;;;
2019/06/09 12:02:39;;;;;;;1999.9;70.5;;;;;;;;;;;;;
2019/06/09 12:05:04;;;;;;;6.8;3;;;;;;;;;;;;;
2019/06/09 12:07:32;;;;;;;6.3;2.9;;;;;;;;;;;;;
2019/06/09 12:10:03;;;;;;;4.8;2.8;;;;;;;;;;;;;
2019/06/09 12:12:29;;;;;;;6.2;2.8;;;;;;;;;;;;;
2019/06/09 12:14:54;;;;;;;6;2.8;;;;;;;;;;;;;
2019/06/09 12:17:19;;;;;;;8.2;2.7;;;;;;;;;;;;;
2019/06/09 12:19:47;;;;;;;4.6;2.7;;;;;;;;;;;;;
2019/06/09 12:22:10;;;;;;;5.7;2.9;;;;;;;;;;;;;
2019/06/09 12:24:40;;;;;;;6.4;2.7;;;;;;;;;;;;;
2019/06/09 12:27:05;;;;;;;7.8;2.9;;;;;;;;;;;;;
2019/06/09 12:29:31;;;;;;;8.3;3;;;;;;;;;;;;;
2019/06/09 12:31:56;;;;;;;5.7;3;;;;;;;;;;;;;
2019/06/09 12:34:26;;;;;;;5.4;2.9;;;;;;;;;;;;;
2019/06/09 12:36:48;;;;;;;7;3;;;;;;;;;;;;;
2019/06/09 12:39:12;;;;;;;7.1;3.1;;;;;;;;;;;;;
2019/06/09 12:41:39;;;;;;;5;3.1;;;;;;;;;;;;;
2019/06/09 12:44:10;;;;;;;7.9;3;;;;;;;;;;;;;
2019/06/09 12:46:37;;;;;;;6.6;3.1;;;;;;;;;;;;;
2019/06/09 12:49:00;;;;;;;6.4;3;;;;;;;;;;;;;
2019/06/09 12:51:26;;;;;;;6.8;2.9;;;;;;;;;;;;;
2019/06/09 12:53:49;;;;;;;5.9;2.9;;;;;;;;;;;;;
2019/06/09 12:56:14;;;;;;;6.2;3;;;;;;;;;;;;;
2019/06/09 12:58:40;;;;;;;6.3;3.1;;;;;;;;;;;;;
2019/06/09 13:01:10;;;;;;;7;2.9;;;;;;;;;;;;;
2019/06/09 13:03:39;;;;;;;7.6;2.9;;;;;;;;;;;;;
2019/06/09 13:06:02;;;;;;;5.4;2.9;;;;;;;;;;;;;
2019/06/09 13:08:25;;;;;;;7.5;3.1;;;;;;;;;;;;;
2019/06/09 13:10:51;;;;;;;6.7;2.9;;;;;;;;;;;;;
2019/06/09 13:13:19;;;;;;;6.2;2.7;;;;;;;;;;;;;
2019/06/09 13:15:42;;;;;;;6.5;2.9;;;;;;;;;;;;;
2019/06/09 13:18:08;;;;;;;5.7;2.7;;;;;;;;;;;;;
2019/06/09 13:20:35;;;;;;;7.2;2.8;;;;;;;;;;;;;
2019/06/09 13:23:03;;;;;;;5.8;2.8;;;;;;;;;;;;;
2019/06/09 13:25:31;;;;;;;8.7;3.1;;;;;;;;;;;;;
2019/06/09 13:27:58;;;;;;;6.9;3;;;;;;;;;;;;;
2019/06/09 13:30:22;;;;;;;7.1;2.9;;;;;;;;;;;;;
2019/06/09 13:32:52;;;;;;;9.2;3;;;;;;;;;;;;;
2019/06/09 13:35:14;;;;;;;7.6;2.9;;;;;;;;;;;;;
2019/06/09 13:37:41;;;;;;;5.2;2.6;;;;;;;;;;;;;
2019/06/09 13:40:13;;;;;;;5.5;2.8;;;;;;;;;;;;;
2019/06/09 13:42:35;;;;;;;5.9;2.8;;;;;;;;;;;;;
2019/06/09 13:47:30;;;;;;;8.1;3;;;;;;;;;;;;;
2019/06/09 13:49:56;;;;;;;8.7;3;;;;;;;;;;;;;
2019/06/09 13:52:23;;;;;;;7.3;2.8;;;;;;;;;;;;;
2019/06/09 13:59:42;;;;;;;6.5;3.1;;;;;;;;;;;;;
2019/06/09 14:02:07;;;;;;;6.3;2.9;;;;;;;;;;;;;
2019/06/09 14:04:32;;;;;;;4.9;2.9;;;;;;;;;;;;;
2019/06/09 14:07:01;;;;;;;9.1;3.2;;;;;;;;;;;;;
2019/06/09 14:09:25;;;;;;;4.4;3.1;;;;;;;;;;;;;
2019/06/09 14:11:50;;;;;;;5;2.9;;;;;;;;;;;;;
2019/06/09 14:14:21;;;;;;;6.9;3.2;;;;;;;;;;;;;
2019/06/09 14:16:41;;;;;;;4.8;3.2;;;;;;;;;;;;;
2019/06/09 14:19:05;;;;;;;7.6;3.2;;;;;;;;;;;;;
2019/06/09 14:21:31;;;;;;;9.2;3.5;;;;;;;;;;;;;
2019/06/09 14:29:00;;;;;;;5.3;2.7;;;;;;;;;;;;;
2019/06/09 14:31:27;;;;;;;7.3;3.3;;;;;;;;;;;;;
2019/06/09 14:33:51;;;;;;;5.6;3.1;;;;;;;;;;;;;
2019/06/09 14:36:24;;;;;;;6;3;;;;;;;;;;;;;
2019/06/09 14:38:58;;;;;;;8.7;3.4;;;;;;;;;;;;;
2019/06/09 14:41:21;;;;;;;6.1;3.3;;;;;;;;;;;;;
2019/06/09 14:43:54;;;;;;;7.8;3.1;;;;;;;;;;;;;
2019/06/09 14:46:19;;;;;;;6.5;3;;;;;;;;;;;;;
2019/06/09 14:48:45;;;;;;;6.4;3.2;;;;;;;;;;;;;
2019/06/09 14:51:08;;;;;;;5.7;2.8;;;;;;;;;;;;;
2019/06/09 14:53:42;;;;;;;7.6;3.2;;;;;;;;;;;;;
2019/06/09 14:56:05;;;;;;;8.7;3.2;;;;;;;;;;;;;
2019/06/09 14:58:27;;;;;;;7.1;3;;;;;;;;;;;;;
2019/06/09 15:00:56;;;;;;;7;3.1;;;;;;;;;;;;;
2019/06/09 15:03:25;;;;;;;7;3.2;;;;;;;;;;;;;
2019/06/09 15:05:50;;;;;;;7;3.2;;;;;;;;;;;;;
2019/06/09 15:08:15;;;;;;;5;3;;;;;;;;;;;;;
2019/06/09 15:10:42;;;;;;;10;3;;;;;;;;;;;;;
2019/06/09 15:13:25;;;;;;;5.4;3.3;;;;;;;;;;;;;
2019/06/09 15:15:51;;;;;;;5.1;2.9;;;;;;;;;;;;;
2019/06/09 15:18:19;;;;;;;7.5;3;;;;;;;;;;;;;
2019/06/09 15:20:43;;;;;;;10;3.3;;;;;;;;;;;;;
2019/06/09 15:23:09;;;;;;;4.8;3;;;;;;;;;;;;;
2019/06/09 15:25:36;;;;;;;6.7;3.2;;;;;;;;;;;;;
2019/06/09 15:28:03;;;;;;;5.7;3.1;;;;;;;;;;;;;
2019/06/09 15:30:27;;;;;;;7;3;;;;;;;;;;;;;
2019/06/09 15:32:53;;;;;;;8.4;3.1;;;;;;;;;;;;;
2019/06/09 15:35:22;;;;;;;5.2;3.1;;;;;;;;;;;;;
2019/06/09 15:37:48;;;;;;;5.9;3.1;;;;;;;;;;;;;
2019/06/09 15:40:18;;;;;;;8.8;3.2;;;;;;;;;;;;;
2019/06/09 15:42:39;;;;;;;5.1;3;;;;;;;;;;;;;
2019/06/09 15:45:05;;;;;;;6.4;3.3;;;;;;;;;;;;;
2019/06/09 15:47:33;;;;;;;5.7;3.3;;;;;;;;;;;;;
2019/06/09 15:49:56;;;;;;;6.3;3;;;;;;;;;;;;;
2019/06/09 15:52:22;;;;;;;5.5;2.9;;;;;;;;;;;;;
2019/06/09 15:54:47;;;;;;;5.6;2.9;;;;;;;;;;;;;
2019/06/09 15:57:12;;;;;;;5.5;3.2;;;;;;;;;;;;;